sensor_id;sensor_type;location;lat;lon;timestamp;temperature;humidity
26964;DHT22;14521;48.148;-1.656;2023-03-29T00:00:10;19.20;84.50
26964;DHT22;14521;48.148;-1.656;2023-03-29T00:03:35;19.20;84.60
26964;DHT22;14521;48.148;-1.656;2023-03-29T00:07:00;19.20;84.60
26964;DHT22;14521;48.148;-1.656;2023-03-29T00:10:26;19.20;84.50
26964;DHT22;14521;48.148;-1.656;2023-03-29T00:13:49;19.20;84.60
26964;DHT22;14521;48.148;-1.656;2023-03-29T00:17:11;19.20;84.60
26964;DHT22;14521;48.148;-1.656;2023-03-29T00:20:34;19.20;84.70
26964;DHT22;14521;48.148;-1.656;2023-03-29T00:23:57;19.20;84.70
26964;DHT22;14521;48.148;-1.656;2023-03-29T00:27:20;19.20;84.60
26964;DHT22;14521;48.148;-1.656;2023-03-29T00:30:43;19.20;84.70
26964;DHT22;14521;48.148;-1.656;2023-03-29T00:34:05;19.20;84.70
26964;DHT22;14521;48.148;-1.656;2023-03-29T00:37:28;19.20;84.70
26964;DHT22;14521;48.148;-1.656;2023-03-29T00:40:53;19.20;84.80
26964;DHT22;14521;48.148;-1.656;2023-03-29T00:48:22;19.20;85.00
26964;DHT22;14521;48.148;-1.656;2023-03-29T00:51:47;19.20;85.00
26964;DHT22;14521;48.148;-1.656;2023-03-29T00:55:13;19.20;85.00
26964;DHT22;14521;48.148;-1.656;2023-03-29T01:02:03;19.20;85.00
26964;DHT22;14521;48.148;-1.656;2023-03-29T01:05:32;19.20;85.00
26964;DHT22;14521;48.148;-1.656;2023-03-29T01:09:02;19.10;85.00
26964;DHT22;14521;48.148;-1.656;2023-03-29T01:12:31;19.20;85.20
26964;DHT22;14521;48.148;-1.656;2023-03-29T01:15:57;19.20;85.20
26964;DHT22;14521;48.148;-1.656;2023-03-29T01:19:23;19.10;85.10
26964;DHT22;14521;48.148;-1.656;2023-03-29T01:26:32;19.10;85.20
26964;DHT22;14521;48.148;-1.656;2023-03-29T01:30:02;19.10;85.20
26964;DHT22;14521;48.148;-1.656;2023-03-29T01:33:37;19.10;85.20
26964;DHT22;14521;48.148;-1.656;2023-03-29T01:37:12;19.10;85.20
26964;DHT22;14521;48.148;-1.656;2023-03-29T01:40:36;19.10;85.20
26964;DHT22;14521;48.148;-1.656;2023-03-29T01:44:11;19.10;85.40
26964;DHT22;14521;48.148;-1.656;2023-03-29T01:51:17;19.10;85.40
26964;DHT22;14521;48.148;-1.656;2023-03-29T01:54:53;19.10;85.40
26964;DHT22;14521;48.148;-1.656;2023-03-29T01:58:17;19.10;85.40
26964;DHT22;14521;48.148;-1.656;2023-03-29T02:01:44;19.10;85.50
26964;DHT22;14521;48.148;-1.656;2023-03-29T02:05:13;19.10;85.70
26964;DHT22;14521;48.148;-1.656;2023-03-29T02:08:38;19.10;85.60
26964;DHT22;14521;48.148;-1.656;2023-03-29T02:12:02;19.10;85.60
26964;DHT22;14521;48.148;-1.656;2023-03-29T02:15:27;19.10;85.70
26964;DHT22;14521;48.148;-1.656;2023-03-29T02:18:50;19.10;85.70
26964;DHT22;14521;48.148;-1.656;2023-03-29T02:22:14;19.00;85.70
26964;DHT22;14521;48.148;-1.656;2023-03-29T02:25:37;19.10;85.80
26964;DHT22;14521;48.148;-1.656;2023-03-29T02:29:00;19.10;86.00
26964;DHT22;14521;48.148;-1.656;2023-03-29T02:32:25;19.00;86.10
26964;DHT22;14521;48.148;-1.656;2023-03-29T02:35:59;19.00;86.10
26964;DHT22;14521;48.148;-1.656;2023-03-29T02:39:26;19.10;86.20
26964;DHT22;14521;48.148;-1.656;2023-03-29T02:42:49;19.00;86.10
26964;DHT22;14521;48.148;-1.656;2023-03-29T02:46:12;19.10;86.10
26964;DHT22;14521;48.148;-1.656;2023-03-29T02:49:37;19.00;86.00
26964;DHT22;14521;48.148;-1.656;2023-03-29T02:53:03;19.10;86.30
26964;DHT22;14521;48.148;-1.656;2023-03-29T02:56:28;19.00;86.10
26964;DHT22;14521;48.148;-1.656;2023-03-29T02:59:54;19.00;86.10
26964;DHT22;14521;48.148;-1.656;2023-03-29T03:03:18;19.00;86.30
26964;DHT22;14521;48.148;-1.656;2023-03-29T03:06:43;19.00;86.30
26964;DHT22;14521;48.148;-1.656;2023-03-29T03:10:07;19.00;86.30
26964;DHT22;14521;48.148;-1.656;2023-03-29T03:13:32;19.00;86.40
26964;DHT22;14521;48.148;-1.656;2023-03-29T03:16:54;19.00;86.40
26964;DHT22;14521;48.148;-1.656;2023-03-29T03:20:16;19.00;86.60
26964;DHT22;14521;48.148;-1.656;2023-03-29T03:23:39;19.00;86.60
26964;DHT22;14521;48.148;-1.656;2023-03-29T03:27:02;19.00;86.50
26964;DHT22;14521;48.148;-1.656;2023-03-29T03:30:24;19.00;86.60
26964;DHT22;14521;48.148;-1.656;2023-03-29T03:34:06;19.00;86.70
26964;DHT22;14521;48.148;-1.656;2023-03-29T03:37:43;19.00;86.70
26964;DHT22;14521;48.148;-1.656;2023-03-29T03:41:06;19.00;86.80
26964;DHT22;14521;48.148;-1.656;2023-03-29T03:44:29;19.00;86.80
26964;DHT22;14521;48.148;-1.656;2023-03-29T03:48:13;19.00;86.90
26964;DHT22;14521;48.148;-1.656;2023-03-29T03:51:41;19.00;86.90
26964;DHT22;14521;48.148;-1.656;2023-03-29T03:55:07;19.00;86.90
26964;DHT22;14521;48.148;-1.656;2023-03-29T03:58:56;19.00;86.90
26964;DHT22;14521;48.148;-1.656;2023-03-29T04:02:20;19.00;86.90
26964;DHT22;14521;48.148;-1.656;2023-03-29T04:05:44;19.00;87.00
26964;DHT22;14521;48.148;-1.656;2023-03-29T04:09:09;19.00;87.00
26964;DHT22;14521;48.148;-1.656;2023-03-29T04:12:36;19.00;87.10
26964;DHT22;14521;48.148;-1.656;2023-03-29T04:16:00;19.00;87.10
26964;DHT22;14521;48.148;-1.656;2023-03-29T04:19:23;18.90;87.20
26964;DHT22;14521;48.148;-1.656;2023-03-29T04:22:46;19.00;87.30
26964;DHT22;14521;48.148;-1.656;2023-03-29T04:26:08;19.00;87.40
26964;DHT22;14521;48.148;-1.656;2023-03-29T04:29:42;19.00;87.40
26964;DHT22;14521;48.148;-1.656;2023-03-29T04:33:18;19.00;87.40
26964;DHT22;14521;48.148;-1.656;2023-03-29T04:36:51;19.00;87.40
26964;DHT22;14521;48.148;-1.656;2023-03-29T04:40:17;19.10;87.30
26964;DHT22;14521;48.148;-1.656;2023-03-29T04:43:50;19.10;87.30
26964;DHT22;14521;48.148;-1.656;2023-03-29T04:47:18;19.10;87.20
26964;DHT22;14521;48.148;-1.656;2023-03-29T04:50:47;19.10;87.10
26964;DHT22;14521;48.148;-1.656;2023-03-29T04:54:12;19.20;87.00
26964;DHT22;14521;48.148;-1.656;2023-03-29T04:57:54;19.20;87.00
26964;DHT22;14521;48.148;-1.656;2023-03-29T05:01:26;19.20;87.00
26964;DHT22;14521;48.148;-1.656;2023-03-29T05:04:52;19.20;86.90
26964;DHT22;14521;48.148;-1.656;2023-03-29T05:08:14;19.20;86.70
26964;DHT22;14521;48.148;-1.656;2023-03-29T05:12:02;19.30;86.80
26964;DHT22;14521;48.148;-1.656;2023-03-29T05:15:31;19.30;86.70
26964;DHT22;14521;48.148;-1.656;2023-03-29T05:18:57;19.30;86.70
26964;DHT22;14521;48.148;-1.656;2023-03-29T05:22:20;19.30;86.60
26964;DHT22;14521;48.148;-1.656;2023-03-29T05:25:42;19.40;86.70
26964;DHT22;14521;48.148;-1.656;2023-03-29T05:29:05;19.40;86.50
26964;DHT22;14521;48.148;-1.656;2023-03-29T05:32:30;19.40;86.50
26964;DHT22;14521;48.148;-1.656;2023-03-29T05:36:09;19.40;86.70
26964;DHT22;14521;48.148;-1.656;2023-03-29T05:39:39;19.40;87.00
26964;DHT22;14521;48.148;-1.656;2023-03-29T05:43:01;19.40;86.60
26964;DHT22;14521;48.148;-1.656;2023-03-29T05:46:26;19.40;86.70
26964;DHT22;14521;48.148;-1.656;2023-03-29T05:49:51;19.50;86.60
26964;DHT22;14521;48.148;-1.656;2023-03-29T05:53:16;19.40;86.50
26964;DHT22;14521;48.148;-1.656;2023-03-29T05:56:39;19.40;86.60
26964;DHT22;14521;48.148;-1.656;2023-03-29T06:00:04;19.50;86.60
26964;DHT22;14521;48.148;-1.656;2023-03-29T06:04:07;19.50;87.30
26964;DHT22;14521;48.148;-1.656;2023-03-29T06:07:35;19.60;87.00
26964;DHT22;14521;48.148;-1.656;2023-03-29T06:11:10;19.60;87.30
26964;DHT22;14521;48.148;-1.656;2023-03-29T06:15:05;19.60;87.40
26964;DHT22;14521;48.148;-1.656;2023-03-29T06:19:00;19.70;87.40
26964;DHT22;14521;48.148;-1.656;2023-03-29T06:22:24;19.70;87.80
26964;DHT22;14521;48.148;-1.656;2023-03-29T06:25:46;19.70;88.30
26964;DHT22;14521;48.148;-1.656;2023-03-29T06:29:09;19.60;88.40
26964;DHT22;14521;48.148;-1.656;2023-03-29T06:32:34;19.70;88.60
26964;DHT22;14521;48.148;-1.656;2023-03-29T06:36:01;19.80;88.80
26964;DHT22;14521;48.148;-1.656;2023-03-29T06:39:25;19.70;88.60
26964;DHT22;14521;48.148;-1.656;2023-03-29T06:43:08;19.80;88.10
26964;DHT22;14521;48.148;-1.656;2023-03-29T06:46:59;19.80;88.60
26964;DHT22;14521;48.148;-1.656;2023-03-29T06:50:23;19.90;88.80
26964;DHT22;14521;48.148;-1.656;2023-03-29T06:53:52;19.90;88.10
26964;DHT22;14521;48.148;-1.656;2023-03-29T06:57:14;19.80;87.50
26964;DHT22;14521;48.148;-1.656;2023-03-29T07:00:36;19.80;87.30
26964;DHT22;14521;48.148;-1.656;2023-03-29T07:04:06;19.80;89.60
26964;DHT22;14521;48.148;-1.656;2023-03-29T07:07:50;19.80;88.80
26964;DHT22;14521;48.148;-1.656;2023-03-29T07:11:47;19.80;88.60
26964;DHT22;14521;48.148;-1.656;2023-03-29T07:15:18;19.80;88.90
26964;DHT22;14521;48.148;-1.656;2023-03-29T07:19:04;19.80;89.00
26964;DHT22;14521;48.148;-1.656;2023-03-29T07:22:49;19.80;89.20
26964;DHT22;14521;48.148;-1.656;2023-03-29T07:26:13;19.80;89.20
26964;DHT22;14521;48.148;-1.656;2023-03-29T07:29:50;19.80;88.80
26964;DHT22;14521;48.148;-1.656;2023-03-29T07:33:14;19.70;88.90
26964;DHT22;14521;48.148;-1.656;2023-03-29T07:36:43;19.80;89.20
26964;DHT22;14521;48.148;-1.656;2023-03-29T07:40:07;19.70;88.90
26964;DHT22;14521;48.148;-1.656;2023-03-29T07:43:37;19.70;89.20
26964;DHT22;14521;48.148;-1.656;2023-03-29T07:47:01;19.80;88.70
26964;DHT22;14521;48.148;-1.656;2023-03-29T07:50:24;19.70;89.30
26964;DHT22;14521;48.148;-1.656;2023-03-29T07:53:50;19.70;88.20
26964;DHT22;14521;48.148;-1.656;2023-03-29T07:57:31;19.70;88.00
26964;DHT22;14521;48.148;-1.656;2023-03-29T08:00:53;19.70;88.20
26964;DHT22;14521;48.148;-1.656;2023-03-29T08:04:34;19.70;88.30
26964;DHT22;14521;48.148;-1.656;2023-03-29T08:08:09;19.70;87.90
26964;DHT22;14521;48.148;-1.656;2023-03-29T08:11:59;19.70;88.40
26964;DHT22;14521;48.148;-1.656;2023-03-29T08:15:27;19.70;87.40
26964;DHT22;14521;48.148;-1.656;2023-03-29T08:18:50;19.70;87.40
26964;DHT22;14521;48.148;-1.656;2023-03-29T08:22:14;19.70;88.40
26964;DHT22;14521;48.148;-1.656;2023-03-29T08:26:03;19.60;88.80
26964;DHT22;14521;48.148;-1.656;2023-03-29T08:29:25;19.60;89.10
26964;DHT22;14521;48.148;-1.656;2023-03-29T08:32:49;19.50;89.30
26964;DHT22;14521;48.148;-1.656;2023-03-29T08:36:15;19.50;89.40
26964;DHT22;14521;48.148;-1.656;2023-03-29T08:39:38;19.50;89.70
26964;DHT22;14521;48.148;-1.656;2023-03-29T08:44:03;19.60;89.10
26964;DHT22;14521;48.148;-1.656;2023-03-29T08:51:45;19.70;87.60
26964;DHT22;14521;48.148;-1.656;2023-03-29T08:55:19;19.70;89.60
26964;DHT22;14521;48.148;-1.656;2023-03-29T08:59:16;19.70;88.90
26964;DHT22;14521;48.148;-1.656;2023-03-29T09:02:40;19.70;88.20
26964;DHT22;14521;48.148;-1.656;2023-03-29T09:06:06;19.70;88.20
26964;DHT22;14521;48.148;-1.656;2023-03-29T09:09:33;19.70;88.20
26964;DHT22;14521;48.148;-1.656;2023-03-29T09:16:55;19.70;88.70
26964;DHT22;14521;48.148;-1.656;2023-03-29T09:28:09;19.70;90.00
26964;DHT22;14521;48.148;-1.656;2023-03-29T09:31:48;19.70;88.20
26964;DHT22;14521;48.148;-1.656;2023-03-29T09:35:24;19.80;88.30
26964;DHT22;14521;48.148;-1.656;2023-03-29T09:38:49;19.80;88.90
26964;DHT22;14521;48.148;-1.656;2023-03-29T09:42:18;19.80;88.30
26964;DHT22;14521;48.148;-1.656;2023-03-29T09:45:41;19.80;88.00
26964;DHT22;14521;48.148;-1.656;2023-03-29T09:49:10;19.80;88.10
26964;DHT22;14521;48.148;-1.656;2023-03-29T09:52:34;19.80;88.10
26964;DHT22;14521;48.148;-1.656;2023-03-29T09:56:08;19.80;88.40
26964;DHT22;14521;48.148;-1.656;2023-03-29T09:59:47;19.80;88.00
26964;DHT22;14521;48.148;-1.656;2023-03-29T10:03:22;19.80;88.20
26964;DHT22;14521;48.148;-1.656;2023-03-29T10:06:52;19.70;87.90
26964;DHT22;14521;48.148;-1.656;2023-03-29T10:10:30;19.70;87.90
26964;DHT22;14521;48.148;-1.656;2023-03-29T10:13:57;19.70;87.90
26964;DHT22;14521;48.148;-1.656;2023-03-29T10:17:26;19.70;87.40
26964;DHT22;14521;48.148;-1.656;2023-03-29T10:20:50;19.70;87.70
26964;DHT22;14521;48.148;-1.656;2023-03-29T10:24:23;19.70;88.40
26964;DHT22;14521;48.148;-1.656;2023-03-29T10:27:46;19.80;87.30
26964;DHT22;14521;48.148;-1.656;2023-03-29T10:31:17;19.70;87.10
26964;DHT22;14521;48.148;-1.656;2023-03-29T10:34:40;19.80;86.80
26964;DHT22;14521;48.148;-1.656;2023-03-29T10:38:05;19.80;86.90
26964;DHT22;14521;48.148;-1.656;2023-03-29T10:41:32;19.80;87.00
26964;DHT22;14521;48.148;-1.656;2023-03-29T10:44:58;19.80;87.00
26964;DHT22;14521;48.148;-1.656;2023-03-29T10:48:30;19.80;87.00
26964;DHT22;14521;48.148;-1.656;2023-03-29T10:51:52;19.80;87.50
26964;DHT22;14521;48.148;-1.656;2023-03-29T10:55:15;19.80;87.40
26964;DHT22;14521;48.148;-1.656;2023-03-29T11:09:53;19.90;88.60
26964;DHT22;14521;48.148;-1.656;2023-03-29T11:21:21;20.00;88.30
26964;DHT22;14521;48.148;-1.656;2023-03-29T11:25:08;20.10;87.20
26964;DHT22;14521;48.148;-1.656;2023-03-29T11:28:39;20.10;87.80
26964;DHT22;14521;48.148;-1.656;2023-03-29T11:32:17;20.10;87.30
26964;DHT22;14521;48.148;-1.656;2023-03-29T11:50:46;20.20;84.10
26964;DHT22;14521;48.148;-1.656;2023-03-29T12:01:45;20.20;85.50
26964;DHT22;14521;48.148;-1.656;2023-03-29T12:12:42;20.00;87.80
26964;DHT22;14521;48.148;-1.656;2023-03-29T12:20:21;20.00;88.10
26964;DHT22;14521;48.148;-1.656;2023-03-29T12:23:52;20.00;87.70
26964;DHT22;14521;48.148;-1.656;2023-03-29T12:27:38;20.00;88.00
26964;DHT22;14521;48.148;-1.656;2023-03-29T12:38:50;20.00;88.00
26964;DHT22;14521;48.148;-1.656;2023-03-29T12:42:46;20.00;88.00
26964;DHT22;14521;48.148;-1.656;2023-03-29T12:46:31;20.00;88.00
26964;DHT22;14521;48.148;-1.656;2023-03-29T12:49:58;20.00;88.00
26964;DHT22;14521;48.148;-1.656;2023-03-29T12:57:25;20.00;87.60
26964;DHT22;14521;48.148;-1.656;2023-03-29T13:01:05;20.00;87.00
26964;DHT22;14521;48.148;-1.656;2023-03-29T13:04:37;20.00;86.50
26964;DHT22;14521;48.148;-1.656;2023-03-29T13:08:16;20.10;85.00
26964;DHT22;14521;48.148;-1.656;2023-03-29T13:11:41;20.20;85.20
26964;DHT22;14521;48.148;-1.656;2023-03-29T13:15:22;20.20;85.00
26964;DHT22;14521;48.148;-1.656;2023-03-29T13:26:25;20.20;83.90
26964;DHT22;14521;48.148;-1.656;2023-03-29T13:34:08;20.20;83.60
26964;DHT22;14521;48.148;-1.656;2023-03-29T13:37:51;20.30;82.40
26964;DHT22;14521;48.148;-1.656;2023-03-29T13:41:45;20.30;82.50
26964;DHT22;14521;48.148;-1.656;2023-03-29T13:45:26;20.30;81.70
26964;DHT22;14521;48.148;-1.656;2023-03-29T13:48:53;20.20;81.30
26964;DHT22;14521;48.148;-1.656;2023-03-29T13:52:25;20.20;81.00
26964;DHT22;14521;48.148;-1.656;2023-03-29T13:55:51;20.30;81.70
26964;DHT22;14521;48.148;-1.656;2023-03-29T13:59:18;20.30;81.20
26964;DHT22;14521;48.148;-1.656;2023-03-29T14:02:50;20.30;81.00
26964;DHT22;14521;48.148;-1.656;2023-03-29T14:06:35;20.30;81.70
26964;DHT22;14521;48.148;-1.656;2023-03-29T14:09:58;20.30;81.00
26964;DHT22;14521;48.148;-1.656;2023-03-29T14:13:24;20.30;81.50
26964;DHT22;14521;48.148;-1.656;2023-03-29T14:16:46;20.30;80.90
26964;DHT22;14521;48.148;-1.656;2023-03-29T14:20:13;20.30;80.90
26964;DHT22;14521;48.148;-1.656;2023-03-29T14:23:37;20.40;81.50
26964;DHT22;14521;48.148;-1.656;2023-03-29T14:27:04;20.20;82.90
26964;DHT22;14521;48.148;-1.656;2023-03-29T14:30:27;20.20;80.70
26964;DHT22;14521;48.148;-1.656;2023-03-29T14:33:51;20.30;80.50
26964;DHT22;14521;48.148;-1.656;2023-03-29T14:37:20;20.30;80.70
26964;DHT22;14521;48.148;-1.656;2023-03-29T14:40:43;20.30;79.90
26964;DHT22;14521;48.148;-1.656;2023-03-29T14:44:06;20.30;79.30
26964;DHT22;14521;48.148;-1.656;2023-03-29T14:47:30;20.30;79.80
26964;DHT22;14521;48.148;-1.656;2023-03-29T14:50:54;20.30;80.10
26964;DHT22;14521;48.148;-1.656;2023-03-29T14:54:31;20.30;79.50
26964;DHT22;14521;48.148;-1.656;2023-03-29T14:57:55;20.30;80.20
26964;DHT22;14521;48.148;-1.656;2023-03-29T15:01:20;20.30;79.40
26964;DHT22;14521;48.148;-1.656;2023-03-29T15:04:54;20.30;80.10
26964;DHT22;14521;48.148;-1.656;2023-03-29T15:08:22;20.30;79.80
26964;DHT22;14521;48.148;-1.656;2023-03-29T15:11:56;20.30;80.70
26964;DHT22;14521;48.148;-1.656;2023-03-29T15:15:19;20.30;80.50
26964;DHT22;14521;48.148;-1.656;2023-03-29T15:18:45;20.30;80.50
26964;DHT22;14521;48.148;-1.656;2023-03-29T15:22:10;20.30;82.30
26964;DHT22;14521;48.148;-1.656;2023-03-29T15:25:56;20.20;83.20
26964;DHT22;14521;48.148;-1.656;2023-03-29T15:29:19;20.10;83.20
26964;DHT22;14521;48.148;-1.656;2023-03-29T15:32:45;20.10;83.40
26964;DHT22;14521;48.148;-1.656;2023-03-29T15:36:09;20.10;83.00
26964;DHT22;14521;48.148;-1.656;2023-03-29T15:39:32;20.10;78.80
26964;DHT22;14521;48.148;-1.656;2023-03-29T15:42:55;20.10;78.00
26964;DHT22;14521;48.148;-1.656;2023-03-29T15:46:18;20.20;79.10
26964;DHT22;14521;48.148;-1.656;2023-03-29T15:49:40;20.10;79.50
26964;DHT22;14521;48.148;-1.656;2023-03-29T15:53:02;20.10;79.30
26964;DHT22;14521;48.148;-1.656;2023-03-29T15:56:47;20.10;79.30
26964;DHT22;14521;48.148;-1.656;2023-03-29T16:00:12;20.10;81.40
26964;DHT22;14521;48.148;-1.656;2023-03-29T16:03:35;20.10;82.40
26964;DHT22;14521;48.148;-1.656;2023-03-29T16:06:57;20.10;81.80
26964;DHT22;14521;48.148;-1.656;2023-03-29T16:10:20;20.00;82.10
26964;DHT22;14521;48.148;-1.656;2023-03-29T16:13:42;20.00;83.10
26964;DHT22;14521;48.148;-1.656;2023-03-29T16:17:05;20.10;83.20
26964;DHT22;14521;48.148;-1.656;2023-03-29T16:20:27;20.00;82.90
26964;DHT22;14521;48.148;-1.656;2023-03-29T16:23:49;20.00;82.60
26964;DHT22;14521;48.148;-1.656;2023-03-29T16:27:12;20.10;82.00
26964;DHT22;14521;48.148;-1.656;2023-03-29T16:30:36;20.10;82.00
26964;DHT22;14521;48.148;-1.656;2023-03-29T16:33:58;20.10;82.00
26964;DHT22;14521;48.148;-1.656;2023-03-29T16:37:21;20.10;82.00
26964;DHT22;14521;48.148;-1.656;2023-03-29T16:40:43;20.10;82.20
26964;DHT22;14521;48.148;-1.656;2023-03-29T16:44:06;20.10;82.30
26964;DHT22;14521;48.148;-1.656;2023-03-29T16:47:28;20.20;82.20
26964;DHT22;14521;48.148;-1.656;2023-03-29T16:50:51;20.10;81.40
26964;DHT22;14521;48.148;-1.656;2023-03-29T16:54:14;20.10;81.60
26964;DHT22;14521;48.148;-1.656;2023-03-29T16:57:38;20.20;81.30
26964;DHT22;14521;48.148;-1.656;2023-03-29T17:01:11;20.20;81.00
26964;DHT22;14521;48.148;-1.656;2023-03-29T17:04:34;20.20;84.50
26964;DHT22;14521;48.148;-1.656;2023-03-29T17:07:57;20.30;85.60
26964;DHT22;14521;48.148;-1.656;2023-03-29T17:11:19;20.30;84.10
26964;DHT22;14521;48.148;-1.656;2023-03-29T17:14:44;20.30;82.80
26964;DHT22;14521;48.148;-1.656;2023-03-29T17:18:07;20.30;82.40
26964;DHT22;14521;48.148;-1.656;2023-03-29T17:21:29;20.40;84.90
26964;DHT22;14521;48.148;-1.656;2023-03-29T17:24:51;20.40;84.10
26964;DHT22;14521;48.148;-1.656;2023-03-29T17:28:14;20.30;84.80
26964;DHT22;14521;48.148;-1.656;2023-03-29T17:31:36;20.30;84.10
26964;DHT22;14521;48.148;-1.656;2023-03-29T17:35:03;20.40;85.40
26964;DHT22;14521;48.148;-1.656;2023-03-29T17:38:25;20.10;82.70
26964;DHT22;14521;48.148;-1.656;2023-03-29T17:41:49;20.00;82.20
26964;DHT22;14521;48.148;-1.656;2023-03-29T17:45:13;19.90;82.40
26964;DHT22;14521;48.148;-1.656;2023-03-29T17:48:36;19.90;84.60
26964;DHT22;14521;48.148;-1.656;2023-03-29T17:51:58;20.00;84.40
26964;DHT22;14521;48.148;-1.656;2023-03-29T17:55:21;20.00;84.90
26964;DHT22;14521;48.148;-1.656;2023-03-29T17:58:43;20.10;83.70
26964;DHT22;14521;48.148;-1.656;2023-03-29T18:02:06;20.10;85.20
26964;DHT22;14521;48.148;-1.656;2023-03-29T18:05:28;20.10;83.90
26964;DHT22;14521;48.148;-1.656;2023-03-29T18:08:50;20.10;84.90
26964;DHT22;14521;48.148;-1.656;2023-03-29T18:12:14;20.10;85.10
26964;DHT22;14521;48.148;-1.656;2023-03-29T18:15:36;20.10;85.00
26964;DHT22;14521;48.148;-1.656;2023-03-29T18:18:58;20.10;85.90
26964;DHT22;14521;48.148;-1.656;2023-03-29T18:22:20;20.10;84.90
26964;DHT22;14521;48.148;-1.656;2023-03-29T18:25:45;20.10;83.80
26964;DHT22;14521;48.148;-1.656;2023-03-29T18:29:07;20.20;84.40
26964;DHT22;14521;48.148;-1.656;2023-03-29T18:32:31;20.40;83.50
26964;DHT22;14521;48.148;-1.656;2023-03-29T18:35:53;20.30;83.30
26964;DHT22;14521;48.148;-1.656;2023-03-29T18:39:16;20.30;83.60
26964;DHT22;14521;48.148;-1.656;2023-03-29T18:42:38;20.20;84.00
26964;DHT22;14521;48.148;-1.656;2023-03-29T18:46:00;20.20;83.90
26964;DHT22;14521;48.148;-1.656;2023-03-29T18:49:23;20.20;83.90
26964;DHT22;14521;48.148;-1.656;2023-03-29T18:52:46;20.20;84.10
26964;DHT22;14521;48.148;-1.656;2023-03-29T18:56:09;20.10;84.20
26964;DHT22;14521;48.148;-1.656;2023-03-29T18:59:32;20.10;84.40
26964;DHT22;14521;48.148;-1.656;2023-03-29T19:02:57;20.10;84.70
26964;DHT22;14521;48.148;-1.656;2023-03-29T19:06:20;20.10;84.60
26964;DHT22;14521;48.148;-1.656;2023-03-29T19:09:42;20.10;85.00
26964;DHT22;14521;48.148;-1.656;2023-03-29T19:13:05;20.10;84.90
26964;DHT22;14521;48.148;-1.656;2023-03-29T19:16:27;20.10;84.80
26964;DHT22;14521;48.148;-1.656;2023-03-29T19:19:50;20.00;84.90
26964;DHT22;14521;48.148;-1.656;2023-03-29T19:23:12;20.00;85.00
26964;DHT22;14521;48.148;-1.656;2023-03-29T19:26:34;20.10;85.20
26964;DHT22;14521;48.148;-1.656;2023-03-29T19:29:57;20.00;85.20
26964;DHT22;14521;48.148;-1.656;2023-03-29T19:33:19;20.00;85.30
26964;DHT22;14521;48.148;-1.656;2023-03-29T19:36:41;20.00;86.10
26964;DHT22;14521;48.148;-1.656;2023-03-29T19:40:04;20.00;85.50
26964;DHT22;14521;48.148;-1.656;2023-03-29T19:43:28;20.00;85.70
26964;DHT22;14521;48.148;-1.656;2023-03-29T19:46:50;20.00;86.00
26964;DHT22;14521;48.148;-1.656;2023-03-29T19:50:13;20.00;85.80
26964;DHT22;14521;48.148;-1.656;2023-03-29T19:53:35;20.00;85.80
26964;DHT22;14521;48.148;-1.656;2023-03-29T19:57:00;20.00;85.90
26964;DHT22;14521;48.148;-1.656;2023-03-29T20:00:23;20.00;85.90
26964;DHT22;14521;48.148;-1.656;2023-03-29T20:03:47;20.00;86.00
26964;DHT22;14521;48.148;-1.656;2023-03-29T20:07:10;20.00;86.10
26964;DHT22;14521;48.148;-1.656;2023-03-29T20:10:33;20.00;86.20
26964;DHT22;14521;48.148;-1.656;2023-03-29T20:13:56;20.00;86.00
26964;DHT22;14521;48.148;-1.656;2023-03-29T20:17:18;20.00;86.00
26964;DHT22;14521;48.148;-1.656;2023-03-29T20:20:40;20.00;86.20
26964;DHT22;14521;48.148;-1.656;2023-03-29T20:24:05;20.00;86.70
26964;DHT22;14521;48.148;-1.656;2023-03-29T20:27:29;20.00;86.80
26964;DHT22;14521;48.148;-1.656;2023-03-29T20:30:52;20.00;87.00
26964;DHT22;14521;48.148;-1.656;2023-03-29T20:34:14;20.00;86.80
26964;DHT22;14521;48.148;-1.656;2023-03-29T20:37:39;20.00;86.70
26964;DHT22;14521;48.148;-1.656;2023-03-29T20:41:02;20.00;86.40
26964;DHT22;14521;48.148;-1.656;2023-03-29T20:44:25;20.00;86.30
26964;DHT22;14521;48.148;-1.656;2023-03-29T20:47:49;20.00;86.20
26964;DHT22;14521;48.148;-1.656;2023-03-29T20:51:20;20.00;86.50
26964;DHT22;14521;48.148;-1.656;2023-03-29T20:54:44;20.00;86.70
26964;DHT22;14521;48.148;-1.656;2023-03-29T20:58:06;20.00;86.60
26964;DHT22;14521;48.148;-1.656;2023-03-29T21:01:29;20.00;86.60
26964;DHT22;14521;48.148;-1.656;2023-03-29T21:04:52;20.00;86.50
26964;DHT22;14521;48.148;-1.656;2023-03-29T21:08:14;20.00;86.70
26964;DHT22;14521;48.148;-1.656;2023-03-29T21:11:38;20.00;87.00
26964;DHT22;14521;48.148;-1.656;2023-03-29T21:15:00;20.00;87.00
26964;DHT22;14521;48.148;-1.656;2023-03-29T21:18:23;20.00;87.20
26964;DHT22;14521;48.148;-1.656;2023-03-29T21:21:45;20.00;87.20
26964;DHT22;14521;48.148;-1.656;2023-03-29T21:25:11;20.00;87.30
26964;DHT22;14521;48.148;-1.656;2023-03-29T21:28:34;20.00;87.50
26964;DHT22;14521;48.148;-1.656;2023-03-29T21:31:58;19.90;87.60
26964;DHT22;14521;48.148;-1.656;2023-03-29T21:35:20;20.00;87.80
26964;DHT22;14521;48.148;-1.656;2023-03-29T21:38:42;20.00;87.70
26964;DHT22;14521;48.148;-1.656;2023-03-29T21:42:05;19.90;87.40
26964;DHT22;14521;48.148;-1.656;2023-03-29T21:45:27;20.00;87.60
26964;DHT22;14521;48.148;-1.656;2023-03-29T21:48:49;20.00;87.90
26964;DHT22;14521;48.148;-1.656;2023-03-29T21:52:12;20.00;87.80
26964;DHT22;14521;48.148;-1.656;2023-03-29T21:55:34;20.00;87.70
26964;DHT22;14521;48.148;-1.656;2023-03-29T21:58:59;20.00;88.10
26964;DHT22;14521;48.148;-1.656;2023-03-29T22:02:22;20.00;88.40
26964;DHT22;14521;48.148;-1.656;2023-03-29T22:05:57;20.00;88.10
26964;DHT22;14521;48.148;-1.656;2023-03-29T22:09:20;20.00;88.20
26964;DHT22;14521;48.148;-1.656;2023-03-29T22:12:42;19.90;88.00
26964;DHT22;14521;48.148;-1.656;2023-03-29T22:16:05;19.90;88.20
26964;DHT22;14521;48.148;-1.656;2023-03-29T22:19:28;19.90;87.80
26964;DHT22;14521;48.148;-1.656;2023-03-29T22:22:50;19.90;87.80
26964;DHT22;14521;48.148;-1.656;2023-03-29T22:26:15;19.90;87.70
26964;DHT22;14521;48.148;-1.656;2023-03-29T22:29:37;19.90;87.70
26964;DHT22;14521;48.148;-1.656;2023-03-29T22:32:59;19.90;87.70
26964;DHT22;14521;48.148;-1.656;2023-03-29T22:36:27;19.90;87.70
26964;DHT22;14521;48.148;-1.656;2023-03-29T22:39:50;19.90;87.80
26964;DHT22;14521;48.148;-1.656;2023-03-29T22:43:12;19.90;87.80
26964;DHT22;14521;48.148;-1.656;2023-03-29T22:46:34;19.90;87.80
26964;DHT22;14521;48.148;-1.656;2023-03-29T22:49:57;19.90;88.00
26964;DHT22;14521;48.148;-1.656;2023-03-29T22:53:19;19.90;88.00
26964;DHT22;14521;48.148;-1.656;2023-03-29T22:56:41;19.90;88.00
26964;DHT22;14521;48.148;-1.656;2023-03-29T23:00:04;19.80;88.00
26964;DHT22;14521;48.148;-1.656;2023-03-29T23:03:30;19.80;88.10
26964;DHT22;14521;48.148;-1.656;2023-03-29T23:06:52;19.80;88.20
26964;DHT22;14521;48.148;-1.656;2023-03-29T23:10:15;19.80;88.30
26964;DHT22;14521;48.148;-1.656;2023-03-29T23:13:37;19.80;88.30